createdAt,value
2019-04-28T00:01:31.081Z,100077.14
2019-04-28T00:04:03.388Z,100076.97
2019-04-28T00:06:35.065Z,100081.06
2019-04-28T00:09:08.075Z,100075.93
2019-04-28T00:11:41.718Z,100075.56
2019-04-28T00:14:13.085Z,100076.77
2019-04-28T00:16:44.659Z,100072.48
2019-04-28T00:19:16.005Z,100074.89
2019-04-28T00:21:49.297Z,100062.69
2019-04-28T00:24:37.216Z,100065.97
2019-04-28T00:27:08.884Z,100060.47
2019-04-28T00:29:43.551Z,100064.77
2019-04-28T00:32:13.115Z,100067.66
2019-04-28T00:34:44.621Z,100060.75
2019-04-28T00:37:23.605Z,100057.67
2019-04-28T00:39:55.253Z,100054.08
2019-04-28T00:42:26.805Z,100049.09
2019-04-28T00:44:58.157Z,100048.05
2019-04-28T00:47:30.980Z,100049.95
2019-04-28T00:50:02.796Z,100050.27
2019-04-28T00:52:34.533Z,100054.19
2019-04-28T00:55:06.925Z,100043.00
2019-04-28T00:57:38.573Z,100038.69
2019-04-28T01:00:11.567Z,100035.44
2019-04-28T01:02:43.420Z,100037.17
2019-04-28T01:05:15.071Z,100034.92
2019-04-28T01:07:46.220Z,100038.34
2019-04-28T01:10:17.666Z,100026.51
2019-04-28T01:12:50.875Z,100032.09
2019-04-28T01:15:23.533Z,100032.78
2019-04-28T01:17:56.639Z,100025.95
2019-04-28T01:20:29.659Z,100027.53
2019-04-28T01:23:00.721Z,100034.94
2019-04-28T01:25:32.406Z,100032.36
2019-04-28T01:28:03.962Z,100040.56
2019-04-28T01:30:53.023Z,100035.48
2019-04-28T01:33:26.128Z,100021.24
2019-04-28T01:35:57.599Z,100007.81
2019-04-28T01:38:30.231Z,99984.36
2019-04-28T01:41:01.657Z,99972.27
2019-04-28T01:43:33.025Z,99976.72
2019-04-28T01:46:04.489Z,99963.25
2019-04-28T01:48:36.025Z,99963.25
2019-04-28T01:51:09.437Z,99960.67
2019-04-28T01:53:40.360Z,99956.27
2019-04-28T01:56:11.927Z,99954.77
2019-04-28T01:58:43.495Z,99943.32
2019-04-28T02:01:14.928Z,99950.08
2019-04-28T02:03:47.350Z,99948.94
2019-04-28T02:06:19.874Z,99948.94
2019-04-28T02:08:51.531Z,99951.19
2019-04-28T02:11:22.680Z,99951.19
2019-04-28T02:13:53.711Z,99951.98
2019-04-28T02:16:25.218Z,99953.41
2019-04-28T02:18:56.614Z,99947.11
2019-04-28T02:21:29.661Z,99955.19
2019-04-28T02:24:19.448Z,99952.09
2019-04-28T02:26:52.718Z,99948.87
2019-04-28T02:29:23.863Z,99948.35
2019-04-28T02:31:55.369Z,99950.25
2019-04-28T02:34:26.723Z,99944.59
2019-04-28T02:37:01.397Z,99947.17
2019-04-28T02:39:32.031Z,99941.50
2019-04-28T02:42:03.106Z,99939.95
2019-04-28T02:44:35.281Z,99942.70
2019-04-28T02:47:06.935Z,99937.19
2019-04-28T02:49:40.681Z,99942.18
2019-04-28T02:52:16.392Z,99944.06
2019-04-28T02:54:50.497Z,99950.94
2019-04-28T02:57:21.148Z,99955.23
2019-04-28T02:59:52.309Z,99955.91
2019-04-28T03:02:23.732Z,99947.44
2019-04-28T03:04:55.086Z,99948.44
2019-04-28T03:07:26.232Z,99937.95
2019-04-28T03:09:57.565Z,99938.66
2019-04-28T03:12:31.408Z,99942.94
2019-04-28T03:15:01.858Z,99942.09
2019-04-28T03:17:33.145Z,99947.44
2019-04-28T03:20:05.840Z,99942.14
2019-04-28T03:22:36.968Z,99947.44
2019-04-28T03:25:11.002Z,99951.56
2019-04-28T03:27:50.928Z,99955.16
2019-04-28T03:30:43.827Z,99949.30
2019-04-28T03:33:25.311Z,99957.38
2019-04-28T03:35:55.433Z,99952.03
2019-04-28T03:38:26.831Z,99959.20
2019-04-28T03:41:00.779Z,99947.91
2019-04-28T03:43:30.857Z,99956.52
2019-04-28T03:46:03.990Z,99956.52
2019-04-28T03:48:35.255Z,99954.34
2019-04-28T03:51:06.546Z,99954.34
2019-04-28T03:53:37.886Z,99969.98
2019-04-28T03:56:11.345Z,99967.41
2019-04-28T03:58:41.862Z,99975.98
2019-04-28T04:01:13.360Z,99973.23
2019-04-28T04:03:44.504Z,99970.34
2019-04-28T04:06:15.958Z,99965.38
2019-04-28T04:08:47.449Z,99968.66
2019-04-28T04:11:35.544Z,99970.74
2019-04-28T04:14:11.288Z,99969.56
2019-04-28T04:16:45.725Z,99969.38
2019-04-28T04:19:20.371Z,99973.50
2019-04-28T04:21:52.713Z,99965.29
2019-04-28T04:24:23.751Z,99973.73
2019-04-28T04:26:55.202Z,99971.52
2019-04-28T04:29:26.345Z,99981.36
2019-04-28T04:32:13.650Z,99985.95
2019-04-28T04:34:30.781Z,99992.64
2019-04-28T04:37:01.820Z,99984.93
2019-04-28T04:39:33.113Z,99982.69
2019-04-28T04:42:04.414Z,99982.34
2019-04-28T04:44:38.003Z,99980.85
2019-04-28T04:47:10.898Z,99974.33
2019-04-28T04:49:41.628Z,99975.55
2019-04-28T04:52:13.113Z,99974.88
2019-04-28T04:54:44.404Z,99976.73
2019-04-28T04:57:15.775Z,99976.92
2019-04-28T04:59:47.123Z,99979.82
2019-04-28T05:02:29.496Z,99984.60
2019-04-28T05:04:54.843Z,99973.39
2019-04-28T05:07:26.181Z,99976.97
2019-04-28T05:09:57.324Z,99983.17
2019-04-28T05:12:30.622Z,99985.61
2019-04-28T05:15:01.976Z,99991.31
2019-04-28T05:17:33.303Z,99984.28
2019-04-28T05:20:06.137Z,99992.22
2019-04-28T05:22:39.977Z,99985.66
2019-04-28T05:25:13.030Z,99982.03
2019-04-28T05:27:44.367Z,99981.85
2019-04-28T05:30:15.763Z,99990.30
2019-04-28T05:32:56.286Z,99987.55
2019-04-28T05:35:25.097Z,99982.07
2019-04-28T05:37:55.868Z,99985.16
2019-04-28T05:40:27.119Z,99992.94
2019-04-28T05:43:00.531Z,99992.07
2019-04-28T05:45:32.149Z,99993.80
2019-04-28T05:48:03.616Z,99996.73
2019-04-28T05:50:50.031Z,99994.13
2019-04-28T05:53:22.803Z,99996.00
2019-04-28T05:56:00.078Z,99998.57
2019-04-28T05:58:40.201Z,99991.86
2019-04-28T06:01:20.412Z,99994.97
2019-04-28T06:03:51.543Z,99992.89
2019-04-28T06:06:24.460Z,99995.31
2019-04-28T06:08:57.513Z,99990.48
2019-04-28T06:11:30.769Z,99995.59
2019-04-28T06:14:01.800Z,99989.73
2019-04-28T06:16:33.105Z,99995.23
2019-04-28T06:19:04.544Z,99985.33
2019-04-28T06:21:35.517Z,99987.53
2019-04-28T06:24:06.973Z,99985.67
2019-04-28T06:26:38.381Z,99987.91
2019-04-28T06:29:09.825Z,99989.12
2019-04-28T06:31:41.108Z,99983.30
2019-04-28T06:34:12.444Z,99982.43
2019-04-28T06:36:44.585Z,99983.09
2019-04-28T06:39:15.727Z,99977.92
2019-04-28T06:41:46.667Z,99986.17
2019-04-28T06:44:18.321Z,99991.00
2019-04-28T06:46:49.724Z,99984.64
2019-04-28T06:49:21.217Z,99989.80
2019-04-28T06:51:52.569Z,99987.75
2019-04-28T06:54:24.022Z,99998.68
2019-04-28T06:56:55.246Z,99996.09
2019-04-28T06:59:26.780Z,99992.44
2019-04-28T07:01:59.192Z,99987.61
2019-04-28T07:04:30.701Z,99984.68
2019-04-28T07:07:02.188Z,99983.77
2019-04-28T07:09:33.541Z,99983.91
2019-04-28T07:12:04.682Z,99979.59
2019-04-28T07:14:36.034Z,99975.63
2019-04-28T07:17:07.582Z,99956.03
2019-04-28T07:19:39.037Z,99948.61
2019-04-28T07:22:11.817Z,99945.84
2019-04-28T07:24:44.882Z,99949.95
2019-04-28T07:27:16.051Z,99952.02
2019-04-28T07:29:47.762Z,99960.20
2019-04-28T07:32:19.357Z,99964.56
2019-04-28T07:34:50.909Z,99961.72
2019-04-28T07:37:23.371Z,99961.80
2019-04-28T07:39:56.778Z,99970.90
2019-04-28T07:42:28.021Z,99965.49
2019-04-28T07:44:59.448Z,99979.29
2019-04-28T07:47:30.921Z,99973.60
2019-04-28T07:50:02.166Z,99975.06
2019-04-28T07:52:36.480Z,99970.16
2019-04-28T07:55:08.558Z,99963.48
2019-04-28T07:57:40.408Z,99954.46
2019-04-28T08:00:13.804Z,99949.09
2019-04-28T08:02:45.054Z,99946.23
2019-04-28T08:05:18.038Z,99943.81
2019-04-28T08:07:49.382Z,99956.00
2019-04-28T08:10:20.804Z,99955.45
2019-04-28T08:12:52.023Z,99962.25
2019-04-28T08:15:23.586Z,99961.59
2019-04-28T08:17:54.981Z,99956.20
2019-04-28T08:20:26.019Z,99938.38
2019-04-28T08:22:57.158Z,99951.08
2019-04-28T08:25:28.301Z,99939.22
2019-04-28T08:28:00.056Z,99942.72
2019-04-28T08:30:31.197Z,99931.44
2019-04-28T08:33:13.093Z,99936.70
2019-04-28T08:35:44.523Z,99938.66
2019-04-28T08:38:15.867Z,99945.42
2019-04-28T08:40:47.177Z,99947.67
2019-04-28T08:43:18.590Z,99941.43
2019-04-28T08:45:49.796Z,99938.78
2019-04-28T08:48:21.033Z,99945.73
2019-04-28T08:50:52.426Z,99947.20
2019-04-28T08:53:23.673Z,99947.08
2019-04-28T08:55:55.016Z,99945.42
2019-04-28T08:58:26.475Z,99942.77
2019-04-28T09:00:57.962Z,99934.48
2019-04-28T09:03:30.422Z,99940.89
2019-04-28T09:06:01.744Z,99931.26
2019-04-28T09:08:32.733Z,99932.85
2019-04-28T09:11:03.695Z,99933.72
2019-04-28T09:13:35.074Z,99934.14
2019-04-28T09:16:06.577Z,99926.84
2019-04-28T09:18:37.972Z,99919.36
2019-04-28T09:21:09.346Z,99922.02
2019-04-28T09:23:40.766Z,99918.81
2019-04-28T09:26:12.246Z,99918.59
2019-04-28T09:28:43.664Z,99923.82
2019-04-28T09:31:15.219Z,99922.69
2019-04-28T09:33:47.153Z,99929.05
2019-04-28T09:36:19.347Z,99926.44
2019-04-28T09:38:51.006Z,99923.47
2019-04-28T09:41:22.184Z,99924.78
2019-04-28T09:43:55.218Z,99930.25
2019-04-28T09:46:28.119Z,99926.44
2019-04-28T09:48:59.561Z,99927.42
2019-04-28T09:51:30.914Z,99934.11
2019-04-28T09:54:02.264Z,99931.80
2019-04-28T09:56:33.402Z,99928.81
2019-04-28T09:59:04.958Z,99937.69
2019-04-28T10:01:35.894Z,99944.55
2019-04-28T10:04:07.239Z,99934.27
2019-04-28T10:06:38.417Z,99933.13
2019-04-28T10:09:09.728Z,99944.96
2019-04-28T10:11:42.928Z,99924.70
2019-04-28T10:14:14.163Z,99935.95
2019-04-28T10:16:45.518Z,99937.78
2019-04-28T10:19:16.813Z,99936.77
2019-04-28T10:21:48.107Z,99938.47
2019-04-28T10:24:19.455Z,99939.33
2019-04-28T10:26:50.698Z,99948.39
2019-04-28T10:29:21.830Z,99945.61
2019-04-28T10:31:53.293Z,99936.58
2019-04-28T10:34:24.846Z,99946.77
2019-04-28T10:36:56.296Z,99944.09
2019-04-28T10:39:29.042Z,99926.39
2019-04-28T10:42:00.427Z,99933.56
2019-04-28T10:44:33.615Z,99937.12
2019-04-28T10:47:05.171Z,99926.02
2019-04-28T10:49:36.420Z,99930.09
2019-04-28T10:52:07.524Z,99926.58
2019-04-28T10:54:38.746Z,99930.35
2019-04-28T10:57:10.026Z,99925.66
2019-04-28T10:59:42.422Z,99921.97
2019-04-28T11:02:13.565Z,99916.95
2019-04-28T11:04:46.125Z,99918.11
2019-04-28T11:07:17.692Z,99912.62
2019-04-28T11:09:50.484Z,99918.47
2019-04-28T11:12:23.461Z,99919.83
2019-04-28T11:14:54.688Z,99916.44
2019-04-28T11:17:26.950Z,99925.02
2019-04-28T11:19:58.198Z,99920.42
2019-04-28T11:22:29.632Z,99916.09
2019-04-28T11:25:00.918Z,99925.45
2019-04-28T11:27:32.058Z,99936.42
2019-04-28T11:30:04.735Z,99933.69
2019-04-28T11:32:38.952Z,99921.72
2019-04-28T11:35:23.919Z,99932.11
2019-04-28T11:37:54.755Z,99922.27
2019-04-28T11:40:26.099Z,99921.43
2019-04-28T11:42:57.038Z,99915.76
2019-04-28T11:45:28.083Z,99914.22
2019-04-28T11:47:59.634Z,99908.45
2019-04-28T11:50:30.981Z,99915.40
2019-04-28T11:53:02.431Z,99906.39
2019-04-28T11:55:33.493Z,99901.08
2019-04-28T11:58:04.612Z,99901.17
2019-04-28T12:00:36.069Z,99890.94
2019-04-28T12:03:07.058Z,99890.30
2019-04-28T12:05:43.054Z,99891.08
2019-04-28T12:08:14.516Z,99887.61
2019-04-28T12:11:05.525Z,99880.70
2019-04-28T12:13:54.377Z,99876.94
2019-04-28T12:16:27.052Z,99869.34
2019-04-28T12:18:59.809Z,99868.77
2019-04-28T12:21:31.182Z,99866.50
2019-04-28T12:24:02.346Z,99867.06
2019-04-28T12:26:33.361Z,99866.14
2019-04-28T12:29:04.612Z,99853.19
2019-04-28T12:31:36.161Z,99849.14
2019-04-28T12:34:07.304Z,99850.03
2019-04-28T12:36:38.765Z,99847.84
2019-04-28T12:39:09.899Z,99842.73
2019-04-28T12:41:40.834Z,99850.23
2019-04-28T12:44:12.282Z,99846.08
2019-04-28T12:46:43.840Z,99839.45
2019-04-28T12:49:16.517Z,99834.17
2019-04-28T12:51:48.276Z,99838.83
2019-04-28T12:54:21.254Z,99836.93
2019-04-28T12:56:52.602Z,99837.09
2019-04-28T12:59:25.461Z,99838.69
2019-04-28T13:01:58.455Z,99842.95
2019-04-28T13:04:31.465Z,99836.20
2019-04-28T13:07:04.489Z,99834.59
2019-04-28T13:09:35.897Z,99837.19
2019-04-28T13:12:07.509Z,99832.63
2019-04-28T13:14:38.602Z,99832.86
2019-04-28T13:17:09.937Z,99847.98
2019-04-28T13:19:41.234Z,99836.56
2019-04-28T13:22:13.763Z,99832.39
2019-04-28T13:24:45.211Z,99833.13
2019-04-28T13:27:16.673Z,99825.13
2019-04-28T13:29:47.701Z,99829.22
2019-04-28T13:32:18.986Z,99823.81
2019-04-28T13:34:50.571Z,99823.70
2019-04-28T13:37:21.797Z,99817.29
2019-04-28T13:39:59.018Z,99813.81
2019-04-28T13:42:30.598Z,99808.29
2019-04-28T13:45:03.256Z,99805.30
2019-04-28T13:47:34.626Z,99797.84
2019-04-28T13:50:21.420Z,99798.05
2019-04-28T13:52:52.800Z,99794.27
2019-04-28T13:55:28.667Z,99793.77
2019-04-28T13:58:01.424Z,99791.47
2019-04-28T14:00:40.121Z,99790.32
2019-04-28T14:03:18.260Z,99798.59
2019-04-28T14:06:03.738Z,99795.81
2019-04-28T14:08:35.012Z,99800.89
2019-04-28T14:11:06.527Z,99805.09
2019-04-28T14:13:37.747Z,99795.75
2019-04-28T14:16:09.164Z,99794.71
2019-04-28T14:18:40.545Z,99794.50
2019-04-28T14:21:12.120Z,99796.31
2019-04-28T14:23:43.350Z,99789.42
2019-04-28T14:26:14.801Z,99791.98
2019-04-28T14:28:45.933Z,99787.27
2019-04-28T14:31:17.412Z,99789.24
2019-04-28T14:33:48.321Z,99784.86
2019-04-28T14:36:19.773Z,99784.98
2019-04-28T14:38:50.696Z,99785.72
2019-04-28T14:41:22.088Z,99787.87
2019-04-28T14:43:53.306Z,99789.80
2019-04-28T14:46:24.579Z,99789.91
2019-04-28T14:48:55.648Z,99785.29
2019-04-28T14:51:27.108Z,99780.81
2019-04-28T14:53:58.593Z,99775.45
2019-04-28T14:56:29.853Z,99782.34
2019-04-28T14:59:03.983Z,99774.42
2019-04-28T15:01:52.093Z,99775.14
2019-04-28T15:04:24.905Z,99777.29
2019-04-28T15:07:00.722Z,99774.92
2019-04-28T15:09:49.690Z,99771.28
2019-04-28T15:12:21.097Z,99765.63
2019-04-28T15:14:52.200Z,99772.36
2019-04-28T15:17:23.579Z,99767.05
2019-04-28T15:19:54.870Z,99759.42
2019-04-28T15:22:26.220Z,99761.19
2019-04-28T15:24:57.463Z,99764.49
2019-04-28T15:27:28.814Z,99757.48
2019-04-28T15:29:59.861Z,99755.02
2019-04-28T15:32:31.408Z,99752.75
2019-04-28T15:35:02.860Z,99758.09
2019-04-28T15:37:34.206Z,99758.97
2019-04-28T15:40:07.618Z,99753.52
2019-04-28T15:42:38.583Z,99753.56
2019-04-28T15:45:10.087Z,99752.82
2019-04-28T15:47:41.134Z,99758.23
2019-04-28T15:50:12.069Z,99757.77
2019-04-28T15:52:43.522Z,99749.63
2019-04-28T15:55:16.393Z,99757.17
2019-04-28T15:57:48.864Z,99755.74
2019-04-28T16:00:20.527Z,99755.61
2019-04-28T16:02:51.982Z,99751.09
2019-04-28T16:05:23.148Z,99748.39
2019-04-28T16:07:54.885Z,99747.77
2019-04-28T16:10:26.574Z,99742.92
2019-04-28T16:12:58.090Z,99745.19
2019-04-28T16:15:29.637Z,99739.66
2019-04-28T16:18:01.193Z,99743.41
2019-04-28T16:20:32.537Z,99745.87
2019-04-28T16:23:04.096Z,99753.38
2019-04-28T16:25:35.444Z,99751.20
2019-04-28T16:28:06.901Z,99755.70
2019-04-28T16:30:38.115Z,99757.59
2019-04-28T16:33:09.696Z,99758.91
2019-04-28T16:35:41.038Z,99756.17
2019-04-28T16:38:12.606Z,99762.42
2019-04-28T16:40:46.229Z,99768.20
2019-04-28T16:43:28.368Z,99764.00
2019-04-28T16:46:02.918Z,99779.09
2019-04-28T16:48:34.469Z,99784.77
2019-04-28T16:51:05.835Z,99780.40
2019-04-28T16:53:37.573Z,99778.59
2019-04-28T16:56:13.296Z,99783.92
2019-04-28T16:58:55.315Z,99788.30
2019-04-28T17:01:44.693Z,99795.36
2019-04-28T17:04:16.187Z,99793.95
2019-04-28T17:06:47.796Z,99800.68
2019-04-28T17:09:19.550Z,99801.64
2019-04-28T17:11:50.599Z,99806.55
2019-04-28T17:14:22.350Z,99805.46
2019-04-28T17:16:53.747Z,99809.87
2019-04-28T17:19:25.133Z,99814.05
2019-04-28T17:21:56.646Z,99813.11
2019-04-28T17:24:28.207Z,99820.72
2019-04-28T17:26:59.679Z,99824.53
2019-04-28T17:29:32.998Z,99821.61
2019-04-28T17:32:04.748Z,99825.77
2019-04-28T17:34:36.041Z,99831.31
2019-04-28T17:37:10.316Z,99836.28
2019-04-28T17:39:42.072Z,99837.66
2019-04-28T17:42:13.314Z,99841.59
2019-04-28T17:44:44.866Z,99846.73
2019-04-28T17:47:17.644Z,99846.08
2019-04-28T17:49:49.202Z,99851.07
2019-04-28T17:52:20.863Z,99857.41
2019-04-28T17:54:52.505Z,99858.78
2019-04-28T17:57:23.949Z,99860.97
2019-04-28T17:59:57.119Z,99866.97
2019-04-28T18:02:39.146Z,99866.11
2019-04-28T18:05:27.146Z,99873.35
2019-04-28T18:08:00.379Z,99870.41
2019-04-28T18:10:31.932Z,99868.53
2019-04-28T18:13:03.353Z,99873.69
2019-04-28T18:15:52.627Z,99882.64
2019-04-28T18:18:28.739Z,99881.44
2019-04-28T18:21:00.463Z,99883.83
2019-04-28T18:23:31.661Z,99886.07
2019-04-28T18:26:03.363Z,99888.83
2019-04-28T18:28:35.254Z,99884.68
2019-04-28T18:31:23.267Z,99886.38
2019-04-28T18:34:12.450Z,99883.64
2019-04-28T18:36:51.960Z,99888.52
2019-04-28T18:39:34.213Z,99891.97
2019-04-28T18:42:07.877Z,99888.39
2019-04-28T18:44:39.320Z,99883.76
2019-04-28T18:47:10.691Z,99881.19
2019-04-28T18:52:13.226Z,99882.75
2019-04-28T18:54:44.912Z,99885.48
2019-04-28T18:57:16.587Z,99885.16
2019-04-28T18:59:48.066Z,99888.28
2019-04-28T19:02:21.320Z,99882.09
2019-04-28T19:04:52.867Z,99883.14
2019-04-28T19:07:28.716Z,99878.35
2019-04-28T19:10:01.482Z,99879.55
2019-04-28T19:12:37.714Z,99873.89
2019-04-28T19:15:22.864Z,99879.75
2019-04-28T19:18:04.666Z,99873.20
2019-04-28T19:20:35.869Z,99872.86
2019-04-28T19:23:07.670Z,99881.13
2019-04-28T19:25:40.614Z,99873.53
2019-04-28T19:28:12.328Z,99879.87
2019-04-28T19:30:45.682Z,99881.61
2019-04-28T19:33:17.032Z,99877.63
2019-04-28T19:35:48.259Z,99877.27
2019-04-28T19:38:19.795Z,99877.58
2019-04-28T19:40:51.460Z,99875.15
2019-04-28T19:43:23.825Z,99879.62
2019-04-28T19:45:56.925Z,99878.73
2019-04-28T19:48:28.380Z,99880.44
2019-04-28T19:50:59.823Z,99883.33
2019-04-28T19:53:31.924Z,99886.07
2019-04-28T19:56:11.413Z,99881.56
2019-04-28T19:58:56.478Z,99882.06
2019-04-28T20:01:33.887Z,99887.06
2019-04-28T20:04:04.556Z,99880.95
2019-04-28T20:06:34.791Z,99886.28
2019-04-28T20:09:06.492Z,99884.95
2019-04-28T20:11:38.351Z,99884.45
2019-04-28T20:14:10.457Z,99888.41
2019-04-28T20:16:40.883Z,99888.23
2019-04-28T20:19:11.434Z,99890.16
2019-04-28T20:21:42.099Z,99888.09
2019-04-28T20:24:12.628Z,99898.79
2019-04-28T20:26:43.101Z,99901.87
2019-04-28T20:29:15.607Z,99894.30
2019-04-28T20:31:46.063Z,99904.30
2019-04-28T20:34:16.687Z,99902.41
2019-04-28T20:36:51.937Z,99900.52
2019-04-28T20:39:33.109Z,99908.09
2019-04-28T20:42:07.842Z,99907.91
2019-04-28T20:44:38.465Z,99909.30
2019-04-28T20:47:08.959Z,99907.23
2019-04-28T20:49:39.246Z,99907.41
2019-04-28T20:52:09.749Z,99913.25
2019-04-28T20:54:40.259Z,99906.39
2019-04-28T20:57:11.023Z,99909.80
2019-04-28T20:59:41.402Z,99905.88
2019-04-28T21:02:13.676Z,99915.52
2019-04-28T21:04:50.483Z,99919.82
2019-04-28T21:07:20.842Z,99915.19
2019-04-28T21:09:51.494Z,99919.45
2019-04-28T21:12:21.862Z,99910.69
2019-04-28T21:14:52.390Z,99915.87
2019-04-28T21:17:23.114Z,99916.05
2019-04-28T21:19:54.505Z,99921.55
2019-04-28T21:22:24.830Z,99926.53
2019-04-28T21:24:55.390Z,99923.09
2019-04-28T21:27:26.027Z,99920.16
2019-04-28T21:29:56.678Z,99920.33
2019-04-28T21:32:27.118Z,99924.12
2019-04-28T21:34:57.705Z,99926.88
2019-04-28T21:37:30.924Z,99920.52
2019-04-28T21:40:01.363Z,99924.80
2019-04-28T21:42:36.499Z,99927.58
2019-04-28T21:45:24.940Z,99929.97
2019-04-28T21:47:58.045Z,99931.52
2019-04-28T21:50:28.705Z,99931.86
2019-04-28T21:52:58.987Z,99932.20
2019-04-28T21:55:29.300Z,99931.86
2019-04-28T21:57:59.845Z,99924.81
2019-04-28T22:00:33.654Z,99933.73
2019-04-28T22:03:21.980Z,99928.60
2019-04-28T22:05:52.587Z,99929.95
2019-04-28T22:08:22.918Z,99920.33
2019-04-28T22:10:53.569Z,99923.44
2019-04-28T22:13:24.238Z,99927.38
2019-04-28T22:15:54.722Z,99926.86
2019-04-28T22:18:25.296Z,99927.72
2019-04-28T22:20:55.485Z,99928.92
2019-04-28T22:23:27.687Z,99926.30
2019-04-28T22:25:58.175Z,99926.30
2019-04-28T22:28:28.658Z,99913.81
2019-04-28T22:30:59.267Z,99921.67
2019-04-28T22:33:30.004Z,99922.02
2019-04-28T22:36:00.590Z,99914.83
2019-04-28T22:38:31.269Z,99911.17
2019-04-28T22:41:01.748Z,99911.89
2019-04-28T22:43:31.972Z,99907.75
2019-04-28T22:46:02.458Z,99909.13
2019-04-28T22:48:32.865Z,99911.88
2019-04-28T22:51:03.152Z,99903.10
2019-04-28T22:53:35.211Z,99908.26
2019-04-28T22:56:25.799Z,99902.74
2019-04-28T22:59:06.214Z,99903.09
2019-04-28T23:01:44.421Z,99909.80
2019-04-28T23:04:17.408Z,99903.09
2019-04-28T23:06:47.908Z,99912.70
2019-04-28T23:09:19.787Z,99913.71
2019-04-28T23:11:50.322Z,99908.56
2019-04-28T23:14:20.913Z,99910.78
2019-04-28T23:16:51.098Z,99907.84
2019-04-28T23:19:23.195Z,99905.95
2019-04-28T23:22:11.999Z,99909.74
2019-04-28T23:24:42.505Z,99913.69
2019-04-28T23:27:14.036Z,99910.88
2019-04-28T23:29:44.426Z,99912.06
2019-04-28T23:32:15.396Z,99908.22
2019-04-28T23:34:45.615Z,99904.05
2019-04-28T23:37:16.191Z,99903.97
2019-04-28T23:39:46.476Z,99903.91
2019-04-28T23:42:18.646Z,99909.84
2019-04-28T23:44:49.068Z,99912.48
2019-04-28T23:47:19.386Z,99916.23
2019-04-28T23:49:49.531Z,99910.13
2019-04-28T23:52:27.637Z,99910.37
2019-04-28T23:54:59.747Z,99909.25
2019-04-28T23:57:30.080Z,99906.53
